Flight Track Log - Related Links

Times and Time Zones

All times are in EDT time to prevent confusion due to time zone crossing. See the N830QS flight status page for this flight to view local times or setup timezone preferences in your user account.

Time Position Orientation Groundspeed Altitude Reporting Facility
EDT Latitude Longitude Course Direction KTS MPH feet Rate Location/Type
Mon 03:21:30 PM 32.7417 -117.2269 285° West 202 232 2,300  Level Los Angeles Center
Mon 03:22:45 PM 32.7581 -117.3022 285° West 228 262 3,800 2,409 Climbing Los Angeles Center
Mon 03:23:47 PM 32.6922 -117.3156 190° South 247 284 7,800 3,194 Climbing Los Angeles Center
Mon 03:24:49 PM 32.6514 -117.2478 126° Southeast 261 300 10,400 2,160 Climbing Los Angeles Center
Mon 03:25:52 PM 32.6353 -117.1464 101° East 312 359 12,300 1,790 Climbing Los Angeles Center
Mon 03:26:53 PM 32.6231 -117.0606 100° East 324 373 14,100 2,177 Climbing Los Angeles Center
Mon 03:27:56 PM 32.6183 -116.9011 92° East 359 413 16,800 2,160 Climbing Los Angeles Center
Mon 03:28:58 PM 32.6297 -116.7833 83° East 360 414 18,600 1,694 Climbing Los Angeles Center
Mon 03:30:00 PM 32.6411 -116.6622 84° East 370 426 20,300 1,548 Climbing Los Angeles Center
Mon 03:31:02 PM 32.6528 -116.5397 84° East 376 433 21,800 1,392 Climbing Los Angeles Center
Mon 03:32:05 PM 32.6669 -116.3903 84° East 386 444 23,200 1,113 Climbing Los Angeles Center
Mon 03:33:06 PM 32.7008 -116.2944 67° East 399 459 24,100 871 Climbing Los Angeles Center
Mon 03:34:09 PM 32.7150 -116.1397 84° East 398 458 25,000 432 Climbing Los Angeles Center
Mon 03:35:11 PM 32.7228 -116.0056 86° East 409 471 25,000  Level Los Angeles Center
Mon 03:36:13 PM 32.7317 -115.8433 86° East 412 474 25,000  Level Los Angeles Center
Mon 03:37:15 PM 32.7386 -115.7078 86° East 414 476 25,000  Level Los Angeles Center
Mon 03:38:17 PM 32.7456 -115.5731 86° East 410 472 25,000  Level Los Angeles Center
Mon 03:39:20 PM 32.7506 -115.4375 87° East 411 473 25,000  Level Los Angeles Center
Mon 03:40:22 PM 32.7542 -115.3019 88° East 413 475 25,000  Level Los Angeles Center
Mon 03:41:24 PM 32.7583 -115.1653 88° East 414 476 25,000  Level Los Angeles Center
Mon 03:42:26 PM 32.7631 -115.0033 88° East 410 472 25,000  Level Los Angeles Center
Mon 03:43:28 PM 32.7639 -114.8697 90° East 406 467 25,000  Level Los Angeles Center
Mon 03:44:30 PM 32.7669 -114.7356 88° East 406 467 25,000  Level Los Angeles Center
Mon 03:45:33 PM 32.7697 -114.6047 89° East 398 458 25,000  Level Los Angeles Center
Mon 03:46:35 PM 32.7714 -114.4733 89° East 398 458 25,000  Level Los Angeles Center
Mon 03:47:37 PM 32.7725 -114.3150 89° East 399 459 25,000  Level Los Angeles Center
Mon 03:48:39 PM 32.7753 -114.1861 88° East 392 451 25,000  Level Los Angeles Center
Mon 03:49:41 PM 32.7758 -114.0572 90° East 389 448 25,000  Level Los Angeles Center
Mon 03:50:43 PM 32.7833 -113.9236 86° East 405 466 25,000  Level Los Angeles Center
Mon 03:51:45 PM 32.8042 -113.7900 79° East 409 471 25,000  Level Los Angeles Center
Mon 03:52:48 PM 32.8628 -113.6694 60° Northeast 417 480 25,000  Level Los Angeles Center
Mon 03:53:36 PM 32.9197 -113.5561 59° Northeast 421 484 25,000  Level Albuquerque Center
Mon 03:54:38 PM 32.9794 -113.4350 60° Northeast 421 484 25,000 -48 Level Albuquerque Center
Mon 03:55:40 PM 33.0386 -113.3169 59° Northeast 417 480 24,900 -927 Descending Albuquerque Center
Mon 03:56:41 PM 33.0931 -113.2019 61° Northeast 404 465 23,100 -1,951 Descending Albuquerque Center
Mon 03:57:43 PM 33.1506 -113.0869 59° Northeast 402 463 20,900 -1,984 Descending Albuquerque Center
Mon 03:58:45 PM 33.2011 -112.9861 59° Northeast 358 412 19,000 -1,790 Descending Albuquerque Center
Mon 03:59:47 PM 33.2486 -112.8883 60° Northeast 340 391 17,200 -1,463 Descending Albuquerque Center
Mon 04:00:48 PM 33.2808 -112.7664 72° East 326 375 16,000 -927 Descending Albuquerque Center
Mon 04:01:50 PM 33.2836 -112.6569 88° East 329 379 15,300 -1,113 Descending Albuquerque Center
Mon 04:02:52 PM 33.2864 -112.5453 88° East 322 371 13,700 -1,548 Descending Albuquerque Center
Mon 04:03:54 PM 33.2897 -112.4378 88° East 325 374 12,100 -1,463 Descending Albuquerque Center
Mon 04:04:55 PM 33.2925 -112.3317 88° East 321 369 10,700 -1,024 Descending Albuquerque Center
Mon 04:05:57 PM 33.3008 -112.2322 84° East 305 351 10,000 -726 Descending Albuquerque Center
Mon 04:06:59 PM 33.3075 -112.1372 85° East 288 331 9,200 -823 Descending Albuquerque Center
Mon 04:08:01 PM 33.3206 -112.0561 79° East 255 293 8,300 -1,065 Descending Albuquerque Center
Mon 04:09:03 PM 33.3442 -111.9592 74° East 253 291 7,000 -1,024 Descending Albuquerque Center
Mon 04:10:04 PM 33.3453 -111.8797 89° East 239 275 6,200 -1,122 Descending Albuquerque Center
Mon 04:11:06 PM 33.3586 -111.8064 78° East 242 278 4,700 -1,403 Descending Albuquerque Center
Mon 04:12:08 PM 33.4133 -111.8236 345° North 235 270 3,300 -1,017 Descending Albuquerque Center
Mon 04:13:04 PM 33.4333 -111.9000 287° West 217 250 2,700 -776 Descending Phoenix TRACON
Mon 04:14:04 PM 33.4333 -111.9500 270° West 174 200 1,800 -727 Descending Phoenix TRACON
Mon 04:15:16 PM 33.4333 -111.8667 90° East 129 148 1,100 -583 Descending Phoenix TRACON

Login

Don't have an account? Register now (free) for customized features, flight alerts, and more!